Time;durP1;ratioP1;P1;durP2;ratioP2;P2;SDS_P1;SDS_P2;PMS_P1;PMS_P2;Temp;Humidity;BMP_temperature;BMP_pressure;BME280_temperature;BME280_humidity;BME280_pressure;Samples;Min_cycle;Max_cycle;Signal;HPM_P1;HPM_P2
2021/03/07 00:00:10;;;;;;;6.93;4.10;;;;;;;;;;5052471;28;20409;-75
2021/03/07 00:02:36;;;;;;;7.70;4.90;;;;;;;;;;5051782;28;20453;-76
2021/03/07 00:05:02;;;;;;;8.30;5.13;;;;;;;;;;5052141;28;20939;-76
2021/03/07 00:07:28;;;;;;;7.57;4.20;;;;;;;;;;5050634;28;20488;-76
2021/03/07 00:09:54;;;;;;;8.90;5.03;;;;;;;;;;5051220;28;20981;-75
2021/03/07 00:12:20;;;;;;;6.00;4.30;;;;;;;;;;5052536;28;20411;-76
2021/03/07 00:14:46;;;;;;;9.53;4.77;;;;;;;;;;5051066;28;20503;-76
2021/03/07 00:17:12;;;;;;;8.10;5.40;;;;;;;;;;5052442;28;20793;-76
2021/03/07 00:19:38;;;;;;;10.03;4.77;;;;;;;;;;5051345;28;20464;-75
2021/03/07 00:22:04;;;;;;;6.53;4.47;;;;;;;;;;5052313;28;20931;-76
2021/03/07 00:24:30;;;;;;;7.37;4.17;;;;;;;;;;5051150;28;20763;-76
2021/03/07 00:26:56;;;;;;;7.03;4.00;;;;;;;;;;5052359;28;20460;-76
2021/03/07 00:29:22;;;;;;;8.67;4.27;;;;;;;;;;5050987;28;20497;-76
2021/03/07 00:31:48;;;;;;;6.90;4.40;;;;;;;;;;5052264;28;20839;-75
2021/03/07 00:34:14;;;;;;;7.23;4.80;;;;;;;;;;5033763;28;20462;-76
2021/03/07 00:36:40;;;;;;;5.60;4.30;;;;;;;;;;5052970;28;20404;-76
2021/03/07 00:39:06;;;;;;;9.90;5.77;;;;;;;;;;5051097;28;20862;-76
2021/03/07 00:41:33;;;;;;;6.70;4.97;;;;;;;;;;5052502;28;20449;-76
2021/03/07 00:43:59;;;;;;;11.47;5.00;;;;;;;;;;5033273;28;20493;-76
2021/03/07 00:46:25;;;;;;;10.27;4.97;;;;;;;;;;5052478;28;20431;-76
2021/03/07 00:48:51;;;;;;;8.23;5.43;;;;;;;;;;5050029;28;20424;-76
2021/03/07 00:51:17;;;;;;;11.10;5.50;;;;;;;;;;5051068;28;20475;-76
2021/03/07 00:53:43;;;;;;;6.00;4.97;;;;;;;;;;5054940;28;20564;-76
2021/03/07 00:56:09;;;;;;;8.10;4.90;;;;;;;;;;5055976;28;20942;-76
2021/03/07 00:58:35;;;;;;;4.40;3.83;;;;;;;;;;5055431;28;20481;-76
2021/03/07 01:01:01;;;;;;;10.23;5.33;;;;;;;;;;5056199;28;20780;-75
2021/03/07 01:03:27;;;;;;;7.60;5.43;;;;;;;;;;5054743;28;20473;-75
2021/03/07 01:05:53;;;;;;;7.20;4.60;;;;;;;;;;5051013;28;20506;-76
2021/03/07 01:08:19;;;;;;;6.67;4.47;;;;;;;;;;5038506;28;21281;-76
2021/03/07 01:10:45;;;;;;;5.30;4.30;;;;;;;;;;5055933;28;20867;-75
2021/03/07 01:13:12;;;;;;;8.80;4.97;;;;;;;;;;5054334;28;20854;-76
2021/03/07 01:15:38;;;;;;;5.57;4.13;;;;;;;;;;5055703;28;20458;-75
2021/03/07 01:18:05;;;;;;;8.50;4.97;;;;;;;;;;5054467;28;20404;-76
2021/03/07 01:20:32;;;;;;;9.00;5.20;;;;;;;;;;5055600;28;20496;-75
2021/03/07 01:22:58;;;;;;;10.80;6.00;;;;;;;;;;5055299;28;21021;-75
2021/03/07 01:25:29;;;;;;;9.83;6.37;;;;;;;;;;5055552;28;20915;-75
2021/03/07 01:27:55;;;;;;;5.97;5.37;;;;;;;;;;5055709;28;20963;-75
2021/03/07 01:30:23;;;;;;;8.23;5.27;;;;;;;;;;5054176;28;20431;-76
2021/03/07 01:32:49;;;;;;;9.77;5.87;;;;;;;;;;5055424;28;20448;-75
2021/03/07 01:35:16;;;;;;;8.70;5.77;;;;;;;;;;5053959;28;20844;-75
2021/03/07 01:37:42;;;;;;;8.50;5.50;;;;;;;;;;5037359;28;20439;-75
2021/03/07 01:40:14;;;;;;;6.93;5.20;;;;;;;;;;5053876;28;20430;-76
2021/03/07 01:42:50;;;;;;;10.53;6.10;;;;;;;;;;5054756;28;20841;-75
2021/03/07 01:45:20;;;;;;;9.13;6.07;;;;;;;;;;5054136;28;20525;-75
2021/03/07 01:47:48;;;;;;;7.80;5.13;;;;;;;;;;5054973;28;20400;-75
2021/03/07 01:50:15;;;;;;;7.30;4.83;;;;;;;;;;5053115;28;20852;-76
2021/03/07 01:52:41;;;;;;;7.47;5.60;;;;;;;;;;5055116;28;20489;-75
2021/03/07 01:55:07;;;;;;;9.90;5.33;;;;;;;;;;5053607;28;20429;-76
2021/03/07 01:57:34;;;;;;;9.67;6.00;;;;;;;;;;5054133;28;20796;-75
2021/03/07 02:00:01;;;;;;;9.53;5.23;;;;;;;;;;5053493;28;20428;-75
2021/03/07 02:02:27;;;;;;;9.00;5.07;;;;;;;;;;5054620;28;20551;-75
2021/03/07 02:04:53;;;;;;;7.87;5.37;;;;;;;;;;5052502;28;20780;-75
2021/03/07 02:07:19;;;;;;;11.30;5.70;;;;;;;;;;5037982;28;20531;-75
2021/03/07 02:09:46;;;;;;;8.23;5.40;;;;;;;;;;5046717;28;20443;-75
2021/03/07 02:12:12;;;;;;;10.33;5.97;;;;;;;;;;5054691;28;20405;-75
2021/03/07 02:14:39;;;;;;;8.43;6.43;;;;;;;;;;5051129;28;20461;-75
2021/03/07 02:17:06;;;;;;;8.57;5.37;;;;;;;;;;5054478;28;20402;-75
2021/03/07 02:19:36;;;;;;;8.37;6.10;;;;;;;;;;5053244;28;20436;-75
2021/03/07 02:22:05;;;;;;;10.30;5.73;;;;;;;;;;5054427;28;20484;-75
2021/03/07 02:24:32;;;;;;;11.83;6.50;;;;;;;;;;5053260;28;20483;-76
2021/03/07 02:27:00;;;;;;;6.77;4.83;;;;;;;;;;5054279;28;20404;-76
2021/03/07 02:29:26;;;;;;;8.63;5.53;;;;;;;;;;5053103;28;20922;-75
2021/03/07 02:31:57;;;;;;;11.67;6.07;;;;;;;;;;5053480;28;20428;-76
2021/03/07 02:34:32;;;;;;;7.87;5.00;;;;;;;;;;5053086;28;20947;-75
2021/03/07 02:36:59;;;;;;;12.03;6.43;;;;;;;;;;5052480;28;20432;-76
2021/03/07 02:39:26;;;;;;;11.13;6.47;;;;;;;;;;5052902;28;20471;-75
2021/03/07 02:41:54;;;;;;;8.13;5.50;;;;;;;;;;5054279;28;20817;-75
2021/03/07 02:44:20;;;;;;;6.90;5.30;;;;;;;;;;5052930;28;20762;-76
2021/03/07 02:46:47;;;;;;;9.07;5.87;;;;;;;;;;5054192;28;20519;-75
2021/03/07 02:49:15;;;;;;;9.53;6.80;;;;;;;;;;5053482;28;20410;-76
2021/03/07 02:51:41;;;;;;;8.30;5.63;;;;;;;;;;5054350;28;20762;-75
2021/03/07 02:54:08;;;;;;;7.17;5.57;;;;;;;;;;5053203;28;20415;-76
2021/03/07 02:56:36;;;;;;;8.53;6.00;;;;;;;;;;5053944;28;20436;-76
2021/03/07 02:59:05;;;;;;;10.73;7.00;;;;;;;;;;5053530;28;20407;-76
2021/03/07 03:01:32;;;;;;;10.97;5.90;;;;;;;;;;5052382;28;20462;-76
2021/03/07 03:03:58;;;;;;;9.23;6.97;;;;;;;;;;5053333;28;20444;-75
2021/03/07 03:06:24;;;;;;;8.97;5.40;;;;;;;;;;5052156;28;20426;-75
2021/03/07 03:08:54;;;;;;;12.03;6.70;;;;;;;;;;5053988;28;20825;-75
2021/03/07 03:11:21;;;;;;;6.93;5.40;;;;;;;;;;5052487;28;20626;-76
2021/03/07 03:13:51;;;;;;;7.93;5.97;;;;;;;;;;5053868;28;20441;-76
2021/03/07 03:16:17;;;;;;;11.50;6.50;;;;;;;;;;5052377;28;20904;-75
2021/03/07 03:18:44;;;;;;;10.40;6.00;;;;;;;;;;5053625;28;20435;-76
2021/03/07 03:21:11;;;;;;;9.53;5.97;;;;;;;;;;5052270;28;20515;-76
2021/03/07 03:23:37;;;;;;;10.30;6.00;;;;;;;;;;5053956;28;20430;-76
2021/03/07 03:26:03;;;;;;;11.63;5.93;;;;;;;;;;5052599;28;20511;-76
2021/03/07 03:28:29;;;;;;;12.60;6.17;;;;;;;;;;5053289;28;20409;-75
2021/03/07 03:30:55;;;;;;;11.77;6.07;;;;;;;;;;5052161;28;20515;-76
2021/03/07 03:33:27;;;;;;;9.87;6.30;;;;;;;;;;5053265;28;20423;-76
2021/03/07 03:35:54;;;;;;;9.33;5.83;;;;;;;;;;5051962;28;20424;-76
2021/03/07 03:38:20;;;;;;;9.87;6.63;;;;;;;;;;5053459;28;20923;-75
2021/03/07 03:40:49;;;;;;;10.43;7.97;;;;;;;;;;5052073;28;20434;-76
2021/03/07 03:43:15;;;;;;;7.80;5.90;;;;;;;;;;5053139;28;20466;-75
2021/03/07 03:45:42;;;;;;;11.73;7.40;;;;;;;;;;5051159;28;20428;-76
2021/03/07 03:48:10;;;;;;;11.30;6.40;;;;;;;;;;5053432;28;20502;-76
2021/03/07 03:50:40;;;;;;;9.63;6.80;;;;;;;;;;5052093;28;20488;-76
2021/03/07 03:53:07;;;;;;;12.03;7.13;;;;;;;;;;5053109;28;20422;-75
2021/03/07 03:55:33;;;;;;;8.47;5.90;;;;;;;;;;5052088;28;20440;-76
2021/03/07 03:58:07;;;;;;;10.53;6.57;;;;;;;;;;5052914;28;20495;-75
2021/03/07 04:00:34;;;;;;;8.70;6.80;;;;;;;;;;5050830;28;20424;-76
2021/03/07 04:03:00;;;;;;;12.20;7.70;;;;;;;;;;5052837;28;20465;-76
2021/03/07 04:05:28;;;;;;;9.43;6.10;;;;;;;;;;5051931;28;20823;-76
2021/03/07 04:07:54;;;;;;;12.10;6.90;;;;;;;;;;5051548;28;20437;-76
2021/03/07 04:10:21;;;;;;;11.30;8.10;;;;;;;;;;5051832;28;20425;-76
2021/03/07 04:12:49;;;;;;;10.10;7.60;;;;;;;;;;5052212;28;20497;-76
2021/03/07 04:15:17;;;;;;;12.50;7.37;;;;;;;;;;5051248;28;20817;-76
2021/03/07 04:17:44;;;;;;;11.13;6.50;;;;;;;;;;5051771;28;20427;-76
2021/03/07 04:20:11;;;;;;;7.07;5.83;;;;;;;;;;5051710;28;20435;-76
2021/03/07 04:22:37;;;;;;;9.97;7.00;;;;;;;;;;5052629;28;20452;-75
2021/03/07 04:25:04;;;;;;;11.67;7.30;;;;;;;;;;5052042;28;20834;-75
2021/03/07 04:27:30;;;;;;;11.70;6.03;;;;;;;;;;5055115;28;20408;-76
2021/03/07 04:29:57;;;;;;;13.47;7.10;;;;;;;;;;5055929;28;20903;-76
2021/03/07 04:32:23;;;;;;;10.03;6.90;;;;;;;;;;5056913;28;20466;-76
2021/03/07 04:34:50;;;;;;;12.30;7.60;;;;;;;;;;5055615;28;20892;-76
2021/03/07 04:37:16;;;;;;;13.87;8.27;;;;;;;;;;5056932;28;20496;-75
2021/03/07 04:39:42;;;;;;;9.80;6.17;;;;;;;;;;5055813;28;20407;-76
2021/03/07 04:42:08;;;;;;;11.70;6.40;;;;;;;;;;5056577;28;20464;-75
2021/03/07 04:44:34;;;;;;;12.20;6.77;;;;;;;;;;5056515;28;20779;-75
2021/03/07 04:47:00;;;;;;;9.20;6.30;;;;;;;;;;5055844;28;20433;-75
2021/03/07 04:49:26;;;;;;;8.73;6.60;;;;;;;;;;5056879;28;20419;-75
2021/03/07 04:51:52;;;;;;;9.20;6.30;;;;;;;;;;5052338;28;20811;-76
2021/03/07 04:54:18;;;;;;;8.10;5.17;;;;;;;;;;5056552;28;20533;-75
2021/03/07 04:56:45;;;;;;;9.83;7.67;;;;;;;;;;5037946;28;20456;-76
2021/03/07 04:59:11;;;;;;;10.87;7.37;;;;;;;;;;5055679;28;20444;-76
2021/03/07 05:01:38;;;;;;;11.50;7.87;;;;;;;;;;5055027;28;20496;-75
2021/03/07 05:04:04;;;;;;;12.80;7.47;;;;;;;;;;5056722;28;20456;-76
2021/03/07 05:06:34;;;;;;;10.60;7.53;;;;;;;;;;5055343;28;20425;-76
2021/03/07 05:09:00;;;;;;;8.67;6.60;;;;;;;;;;5056428;28;20511;-76
2021/03/07 05:11:26;;;;;;;15.07;7.17;;;;;;;;;;5054990;28;20530;-75
2021/03/07 05:13:52;;;;;;;8.70;7.00;;;;;;;;;;5056638;28;21106;-75
2021/03/07 05:16:20;;;;;;;10.90;5.80;;;;;;;;;;5054805;28;20478;-75
2021/03/07 05:18:46;;;;;;;11.90;6.50;;;;;;;;;;5056284;28;20801;-76
2021/03/07 05:21:12;;;;;;;12.10;7.33;;;;;;;;;;5054622;28;20938;-76
2021/03/07 05:23:38;;;;;;;10.80;6.90;;;;;;;;;;5055107;28;20449;-76
2021/03/07 05:26:05;;;;;;;11.90;7.10;;;;;;;;;;5054658;28;20517;-75
2021/03/07 05:28:31;;;;;;;11.90;7.10;;;;;;;;;;5055991;28;20416;-75
2021/03/07 05:30:57;;;;;;;13.83;6.23;;;;;;;;;;5054642;28;20908;-76
2021/03/07 05:33:23;;;;;;;7.73;5.73;;;;;;;;;;5055796;28;20432;-75
2021/03/07 05:35:49;;;;;;;11.37;7.30;;;;;;;;;;5054495;28;20619;-76
2021/03/07 05:38:15;;;;;;;11.13;7.23;;;;;;;;;;5055570;28;20499;-75
2021/03/07 05:40:42;;;;;;;9.40;6.57;;;;;;;;;;5054421;28;20427;-76
2021/03/07 05:43:08;;;;;;;12.17;6.47;;;;;;;;;;5055737;28;20483;-75
2021/03/07 05:45:35;;;;;;;9.40;7.00;;;;;;;;;;5054633;28;20392;-76
2021/03/07 05:48:01;;;;;;;14.07;6.70;;;;;;;;;;5035654;28;20401;-75
2021/03/07 05:50:28;;;;;;;13.20;6.43;;;;;;;;;;5035308;28;20949;-76
2021/03/07 05:52:55;;;;;;;15.50;7.23;;;;;;;;;;5055536;28;20539;-75
2021/03/07 05:55:24;;;;;;;9.23;6.60;;;;;;;;;;5055654;28;20409;-75
2021/03/07 05:57:50;;;;;;;8.63;6.60;;;;;;;;;;5054285;28;20546;-75
2021/03/07 06:00:20;;;;;;;9.33;6.53;;;;;;;;;;5055469;28;20903;-75
2021/03/07 06:02:46;;;;;;;12.10;6.90;;;;;;;;;;5052401;28;20480;-75
2021/03/07 06:05:13;;;;;;;8.90;6.20;;;;;;;;;;5041885;28;20482;-75
2021/03/07 06:07:40;;;;;;;12.43;7.70;;;;;;;;;;5054239;28;20486;-75
2021/03/07 06:10:13;;;;;;;14.43;7.87;;;;;;;;;;5055322;28;20430;-75
2021/03/07 06:12:39;;;;;;;11.33;6.47;;;;;;;;;;5052264;28;20436;-75
2021/03/07 06:15:06;;;;;;;9.73;6.33;;;;;;;;;;5051139;28;20478;-74
2021/03/07 06:17:42;;;;;;;11.73;5.80;;;;;;;;;;5053450;28;20942;-77
2021/03/07 06:20:09;;;;;;;9.10;6.70;;;;;;;;;;5053471;28;20728;-77
2021/03/07 06:22:36;;;;;;;12.23;7.17;;;;;;;;;;5052477;28;20476;-78
2021/03/07 06:25:07;;;;;;;9.53;5.80;;;;;;;;;;5049988;28;20459;-76
2021/03/07 06:27:33;;;;;;;9.33;7.10;;;;;;;;;;5053357;28;20425;-78
2021/03/07 06:30:08;;;;;;;9.93;6.87;;;;;;;;;;5053853;28;20427;-74
2021/03/07 06:32:36;;;;;;;8.97;6.70;;;;;;;;;;5054251;28;20484;-75
2021/03/07 06:35:02;;;;;;;12.20;7.53;;;;;;;;;;5040125;28;20427;-77
2021/03/07 06:37:28;;;;;;;15.40;7.93;;;;;;;;;;5054636;28;20257;-76
2021/03/07 06:39:54;;;;;;;12.93;8.27;;;;;;;;;;5054467;28;21026;-75
2021/03/07 06:42:21;;;;;;;10.90;6.97;;;;;;;;;;5053133;28;20207;-75
2021/03/07 06:44:55;;;;;;;13.43;7.90;;;;;;;;;;5053157;28;20758;-74
2021/03/07 06:47:21;;;;;;;10.50;7.40;;;;;;;;;;5046500;28;20681;-74
2021/03/07 06:49:47;;;;;;;10.20;7.80;;;;;;;;;;5053005;28;20409;-75
2021/03/07 06:52:19;;;;;;;7.73;5.60;;;;;;;;;;5051598;28;20474;-75
2021/03/07 06:55:02;;;;;;;10.73;7.67;;;;;;;;;;5053752;28;20830;-75
2021/03/07 06:57:28;;;;;;;13.00;7.80;;;;;;;;;;5047335;28;20437;-73
2021/03/07 06:59:54;;;;;;;8.93;6.57;;;;;;;;;;5051863;28;20410;-73
2021/03/07 07:02:20;;;;;;;12.27;7.17;;;;;;;;;;5043631;28;20554;-73
2021/03/07 07:04:46;;;;;;;14.50;7.20;;;;;;;;;;5048750;28;20440;-73
2021/03/07 07:07:13;;;;;;;12.03;7.20;;;;;;;;;;5045152;28;20456;-74
2021/03/07 07:09:43;;;;;;;11.80;6.63;;;;;;;;;;5048027;28;20428;-73
2021/03/07 07:12:18;;;;;;;11.50;8.23;;;;;;;;;;5047360;28;20519;-73
2021/03/07 07:14:44;;;;;;;9.33;6.07;;;;;;;;;;5053862;28;20435;-73
2021/03/07 07:17:14;;;;;;;12.83;6.90;;;;;;;;;;5052493;28;20448;-73
2021/03/07 07:19:41;;;;;;;9.43;6.77;;;;;;;;;;5051145;28;20433;-73
2021/03/07 07:22:08;;;;;;;11.47;7.23;;;;;;;;;;5051706;28;20485;-73
2021/03/07 07:24:34;;;;;;;12.20;8.73;;;;;;;;;;5053625;28;20428;-74
2021/03/07 07:27:01;;;;;;;15.03;8.10;;;;;;;;;;5052397;28;20527;-73
2021/03/07 07:29:27;;;;;;;16.10;8.00;;;;;;;;;;5053440;28;20409;-73
2021/03/07 07:31:55;;;;;;;10.60;8.23;;;;;;;;;;5052604;28;20835;-74
2021/03/07 07:34:25;;;;;;;11.30;8.07;;;;;;;;;;5053468;28;20448;-73
2021/03/07 07:36:52;;;;;;;12.30;8.40;;;;;;;;;;5051943;28;20409;-73
2021/03/07 07:39:23;;;;;;;12.00;7.33;;;;;;;;;;5053304;28;20451;-73
2021/03/07 07:41:49;;;;;;;14.40;8.47;;;;;;;;;;5052113;28;20441;-73
2021/03/07 07:44:27;;;;;;;12.37;8.07;;;;;;;;;;5052987;28;20443;-73
2021/03/07 07:46:57;;;;;;;13.57;9.30;;;;;;;;;;5051714;28;20479;-74
2021/03/07 07:49:36;;;;;;;12.77;9.00;;;;;;;;;;5053271;28;20393;-74
2021/03/07 07:52:22;;;;;;;12.87;9.43;;;;;;;;;;5052052;28;20464;-74
2021/03/07 07:54:49;;;;;;;15.73;8.80;;;;;;;;;;5051870;28;20454;-73
2021/03/07 07:57:38;;;;;;;13.43;9.50;;;;;;;;;;5052259;28;20522;-74
2021/03/07 08:00:05;;;;;;;13.27;8.50;;;;;;;;;;5053476;28;20412;-73
2021/03/07 08:02:47;;;;;;;18.30;9.33;;;;;;;;;;5059558;28;20450;-73
2021/03/07 08:05:24;;;;;;;16.73;9.40;;;;;;;;;;5065841;28;20397;-73
2021/03/07 08:07:56;;;;;;;14.90;10.10;;;;;;;;;;5053853;28;20508;-73
2021/03/07 08:10:40;;;;;;;15.90;10.77;;;;;;;;;;5053282;28;20424;-73
2021/03/07 08:13:07;;;;;;;15.00;10.27;;;;;;;;;;5051974;28;20522;-74
2021/03/07 08:15:34;;;;;;;16.17;9.97;;;;;;;;;;5051845;28;20930;-74
2021/03/07 08:18:02;;;;;;;14.17;8.80;;;;;;;;;;5052473;28;20467;-73
2021/03/07 08:20:38;;;;;;;14.37;9.40;;;;;;;;;;5052962;28;20497;-73
2021/03/07 08:23:04;;;;;;;18.13;11.20;;;;;;;;;;5051618;28;20865;-73
2021/03/07 08:25:49;;;;;;;13.10;8.97;;;;;;;;;;5051802;28;20464;-73
2021/03/07 08:28:30;;;;;;;20.10;9.87;;;;;;;;;;5051518;28;20998;-73
2021/03/07 08:31:00;;;;;;;16.10;9.97;;;;;;;;;;5053143;28;20399;-73
2021/03/07 08:33:30;;;;;;;16.40;9.27;;;;;;;;;;5051344;28;20442;-73
2021/03/07 08:36:15;;;;;;;17.00;10.53;;;;;;;;;;5052606;28;20532;-73
2021/03/07 08:38:53;;;;;;;19.00;10.20;;;;;;;;;;5051600;28;20456;-73
2021/03/07 08:41:22;;;;;;;14.90;9.17;;;;;;;;;;5052706;28;20783;-73
2021/03/07 08:43:49;;;;;;;13.37;9.77;;;;;;;;;;5051806;28;20840;-73
2021/03/07 08:46:16;;;;;;;14.90;9.30;;;;;;;;;;5052638;28;20398;-73
2021/03/07 08:48:52;;;;;;;13.40;9.43;;;;;;;;;;5051189;28;20427;-73
2021/03/07 08:51:20;;;;;;;17.93;10.43;;;;;;;;;;5052714;28;20390;-73
2021/03/07 08:53:46;;;;;;;13.43;9.30;;;;;;;;;;5051389;28;20457;-73
2021/03/07 08:56:13;;;;;;;13.47;9.87;;;;;;;;;;5052738;28;20894;-73
2021/03/07 08:58:40;;;;;;;13.60;9.60;;;;;;;;;;5051560;28;20422;-73
2021/03/07 09:01:06;;;;;;;14.63;8.97;;;;;;;;;;5050362;28;20426;-73
2021/03/07 09:03:33;;;;;;;13.40;8.97;;;;;;;;;;5051656;28;20453;-73
2021/03/07 09:05:59;;;;;;;13.63;8.60;;;;;;;;;;5052742;28;20402;-73
2021/03/07 09:08:26;;;;;;;14.70;9.97;;;;;;;;;;5051253;28;20418;-73
2021/03/07 09:10:57;;;;;;;13.93;9.73;;;;;;;;;;5032745;28;20907;-73
2021/03/07 09:13:24;;;;;;;13.87;9.70;;;;;;;;;;5043557;28;20448;-73
2021/03/07 09:15:50;;;;;;;14.73;8.80;;;;;;;;;;5056226;28;20425;-73
2021/03/07 09:18:17;;;;;;;14.47;8.87;;;;;;;;;;5054621;28;20427;-73
2021/03/07 09:20:48;;;;;;;13.67;9.00;;;;;;;;;;5056347;28;20404;-73
2021/03/07 09:23:29;;;;;;;14.00;9.07;;;;;;;;;;5037084;28;20464;-73
2021/03/07 09:25:55;;;;;;;15.77;9.20;;;;;;;;;;5055877;28;20411;-74
2021/03/07 09:28:28;;;;;;;15.20;9.90;;;;;;;;;;5054805;28;20472;-71
2021/03/07 09:30:55;;;;;;;16.20;9.87;;;;;;;;;;5055799;28;20405;-73
2021/03/07 09:33:21;;;;;;;14.40;9.50;;;;;;;;;;5053698;28;20452;-74
2021/03/07 09:35:47;;;;;;;14.00;9.23;;;;;;;;;;5056176;28;20400;-73
2021/03/07 09:38:15;;;;;;;13.83;9.13;;;;;;;;;;5054743;28;20434;-74
2021/03/07 09:40:44;;;;;;;15.10;9.63;;;;;;;;;;5055807;28;20434;-73
2021/03/07 09:43:12;;;;;;;13.80;9.07;;;;;;;;;;5054124;28;20474;-74
2021/03/07 09:45:39;;;;;;;15.87;9.67;;;;;;;;;;5055631;28;20870;-73
2021/03/07 09:48:06;;;;;;;11.80;8.53;;;;;;;;;;5053588;28;20430;-74
2021/03/07 09:50:32;;;;;;;14.47;8.87;;;;;;;;;;5055568;28;20484;-74
2021/03/07 09:52:58;;;;;;;12.20;9.13;;;;;;;;;;5054474;28;20596;-74
2021/03/07 09:55:30;;;;;;;14.90;9.90;;;;;;;;;;5055444;28;20473;-74
2021/03/07 09:58:00;;;;;;;15.60;9.20;;;;;;;;;;5054198;28;20432;-74
2021/03/07 10:00:27;;;;;;;12.83;8.53;;;;;;;;;;5056185;28;20405;-74
2021/03/07 10:02:53;;;;;;;13.70;9.00;;;;;;;;;;5054089;28;20476;-74
2021/03/07 10:05:19;;;;;;;13.60;9.23;;;;;;;;;;5053904;28;20868;-73
2021/03/07 10:07:45;;;;;;;14.03;7.63;;;;;;;;;;5051823;28;20880;-74
2021/03/07 10:10:16;;;;;;;14.67;9.80;;;;;;;;;;5044367;28;20477;-74
2021/03/07 10:12:42;;;;;;;12.63;8.77;;;;;;;;;;5036164;28;20387;-74
2021/03/07 10:15:10;;;;;;;12.03;9.63;;;;;;;;;;5053764;28;20418;-71
2021/03/07 10:17:44;;;;;;;14.27;9.83;;;;;;;;;;5054160;28;20923;-73
2021/03/07 10:20:11;;;;;;;14.43;8.93;;;;;;;;;;5034890;28;20765;-73
2021/03/07 10:22:41;;;;;;;13.43;9.90;;;;;;;;;;5035061;28;20456;-73
2021/03/07 10:25:08;;;;;;;11.77;8.30;;;;;;;;;;5033957;28;20392;-73
2021/03/07 10:27:34;;;;;;;13.60;9.60;;;;;;;;;;5034525;28;20399;-73
2021/03/07 10:30:00;;;;;;;15.93;8.80;;;;;;;;;;5054121;28;20418;-73
2021/03/07 10:32:26;;;;;;;16.00;8.83;;;;;;;;;;5054601;28;20417;-73
2021/03/07 10:34:53;;;;;;;12.80;8.50;;;;;;;;;;5035768;28;20451;-73
2021/03/07 10:37:35;;;;;;;13.17;9.23;;;;;;;;;;5054415;28;20928;-72
2021/03/07 10:40:03;;;;;;;9.73;7.77;;;;;;;;;;5052606;28;21046;-73
2021/03/07 10:42:33;;;;;;;11.67;8.37;;;;;;;;;;5054269;28;20944;-72
2021/03/07 10:45:18;;;;;;;12.60;8.80;;;;;;;;;;5053105;28;20460;-72
2021/03/07 10:47:44;;;;;;;13.33;7.60;;;;;;;;;;5053523;28;20396;-73
2021/03/07 10:50:11;;;;;;;13.27;8.40;;;;;;;;;;5053414;28;20401;-73
2021/03/07 10:52:37;;;;;;;13.57;8.47;;;;;;;;;;5053862;28;20395;-73
2021/03/07 10:55:11;;;;;;;14.00;8.80;;;;;;;;;;5052716;28;20768;-73
2021/03/07 10:57:37;;;;;;;10.53;7.30;;;;;;;;;;5054152;28;20478;-73
2021/03/07 11:00:03;;;;;;;12.20;8.00;;;;;;;;;;5032736;28;20849;-73
2021/03/07 11:02:29;;;;;;;12.70;7.00;;;;;;;;;;5053694;28;20503;-72
2021/03/07 11:04:55;;;;;;;11.33;7.50;;;;;;;;;;5053042;28;20456;-73
2021/03/07 11:07:21;;;;;;;18.23;8.80;;;;;;;;;;5054276;28;20401;-73
2021/03/07 11:09:47;;;;;;;16.20;8.60;;;;;;;;;;5052697;28;20440;-73
2021/03/07 11:12:13;;;;;;;21.70;9.00;;;;;;;;;;5038661;28;20908;-73
2021/03/07 11:14:39;;;;;;;13.27;8.77;;;;;;;;;;5052012;28;20818;-73
2021/03/07 11:17:05;;;;;;;17.60;10.00;;;;;;;;;;5054405;28;20398;-73
2021/03/07 11:19:31;;;;;;;15.20;9.20;;;;;;;;;;5054064;28;20518;-73
2021/03/07 11:21:57;;;;;;;15.70;9.00;;;;;;;;;;5054492;28;20444;-73
2021/03/07 11:24:23;;;;;;;15.07;8.90;;;;;;;;;;5041401;28;20460;-73
2021/03/07 11:26:51;;;;;;;20.10;9.13;;;;;;;;;;5034331;28;20786;-73
2021/03/07 11:29:17;;;;;;;11.60;9.37;;;;;;;;;;5045297;28;20798;-73
2021/03/07 11:31:43;;;;;;;10.87;8.13;;;;;;;;;;5053367;28;20411;-73
2021/03/07 11:34:09;;;;;;;11.63;7.83;;;;;;;;;;5052319;28;20450;-73
2021/03/07 11:36:35;;;;;;;11.63;8.17;;;;;;;;;;5053388;28;20766;-73
2021/03/07 11:39:01;;;;;;;12.13;9.83;;;;;;;;;;5052194;28;20432;-73
2021/03/07 11:41:27;;;;;;;10.33;8.10;;;;;;;;;;5053476;28;20759;-73
2021/03/07 11:43:53;;;;;;;12.63;7.90;;;;;;;;;;5052119;28;20856;-73
2021/03/07 11:46:19;;;;;;;13.50;9.23;;;;;;;;;;5034556;28;20800;-73
2021/03/07 11:48:45;;;;;;;12.33;8.53;;;;;;;;;;5052022;28;20432;-73
2021/03/07 11:51:11;;;;;;;15.50;8.47;;;;;;;;;;5053505;28;20448;-73
2021/03/07 11:53:37;;;;;;;14.30;10.40;;;;;;;;;;5051514;28;20964;-73
2021/03/07 11:56:03;;;;;;;18.50;9.93;;;;;;;;;;5052913;28;20408;-73
2021/03/07 11:58:29;;;;;;;15.00;8.80;;;;;;;;;;5049910;28;20435;-73
2021/03/07 12:00:55;;;;;;;11.27;8.43;;;;;;;;;;5053042;28;20408;-73
2021/03/07 12:03:21;;;;;;;17.43;9.47;;;;;;;;;;5050193;28;20821;-74
2021/03/07 12:05:47;;;;;;;14.70;8.80;;;;;;;;;;5052479;28;20489;-73
2021/03/07 12:08:13;;;;;;;11.47;7.70;;;;;;;;;;5051517;28;20491;-74
2021/03/07 12:10:39;;;;;;;12.30;8.33;;;;;;;;;;5034560;28;20426;-73
2021/03/07 12:13:05;;;;;;;13.10;8.80;;;;;;;;;;5050709;28;20451;-73
2021/03/07 12:15:31;;;;;;;15.63;8.80;;;;;;;;;;5051927;28;20432;-73
2021/03/07 12:17:57;;;;;;;13.60;8.80;;;;;;;;;;5053025;28;20399;-73
2021/03/07 12:20:23;;;;;;;14.43;9.53;;;;;;;;;;5051692;28;20534;-73
2021/03/07 12:22:49;;;;;;;20.43;9.13;;;;;;;;;;5052297;28;20956;-73
2021/03/07 12:25:15;;;;;;;15.03;10.47;;;;;;;;;;5051281;28;20435;-73
2021/03/07 12:27:42;;;;;;;15.47;8.50;;;;;;;;;;5052706;28;20431;-73
2021/03/07 12:30:08;;;;;;;16.43;8.47;;;;;;;;;;5051343;28;20771;-73
2021/03/07 12:32:35;;;;;;;13.47;10.03;;;;;;;;;;5052296;28;20953;-73
2021/03/07 12:35:01;;;;;;;12.47;8.23;;;;;;;;;;5051175;28;20501;-73
2021/03/07 12:37:27;;;;;;;13.30;9.40;;;;;;;;;;5052479;28;20411;-73
2021/03/07 12:39:53;;;;;;;11.30;7.77;;;;;;;;;;5051436;28;20435;-73
2021/03/07 12:42:19;;;;;;;14.57;9.07;;;;;;;;;;5035125;28;20476;-73
2021/03/07 12:44:45;;;;;;;11.90;8.50;;;;;;;;;;5051461;28;20455;-73
2021/03/07 12:47:11;;;;;;;20.70;10.03;;;;;;;;;;5052797;28;20771;-73
2021/03/07 12:49:37;;;;;;;14.83;9.80;;;;;;;;;;5055731;28;20455;-73
2021/03/07 12:52:03;;;;;;;13.80;8.80;;;;;;;;;;5055251;28;20404;-73
2021/03/07 12:54:29;;;;;;;17.93;11.03;;;;;;;;;;5037813;28;20533;-73
2021/03/07 12:56:56;;;;;;;13.73;10.67;;;;;;;;;;5055362;28;20413;-71
2021/03/07 12:59:22;;;;;;;16.40;11.63;;;;;;;;;;5055521;28;20424;-72
2021/03/07 13:01:48;;;;;;;18.13;9.87;;;;;;;;;;5056680;28;20467;-72
2021/03/07 13:04:14;;;;;;;16.27;10.30;;;;;;;;;;5054872;28;20443;-72
2021/03/07 13:06:40;;;;;;;17.57;11.13;;;;;;;;;;5049255;28;20419;-72
2021/03/07 13:09:06;;;;;;;14.77;9.90;;;;;;;;;;5041320;28;20424;-72
2021/03/07 13:11:32;;;;;;;16.40;10.00;;;;;;;;;;5056220;28;20449;-72
2021/03/07 13:13:58;;;;;;;16.20;10.60;;;;;;;;;;5054880;28;20441;-74
2021/03/07 13:16:24;;;;;;;14.07;9.17;;;;;;;;;;5055923;28;20430;-72
2021/03/07 13:18:50;;;;;;;15.97;10.83;;;;;;;;;;5054597;28;20915;-72
2021/03/07 13:21:16;;;;;;;16.90;9.93;;;;;;;;;;5055915;28;20487;-72
2021/03/07 13:23:42;;;;;;;16.97;10.07;;;;;;;;;;5054586;28;20452;-72
2021/03/07 13:26:08;;;;;;;16.00;9.80;;;;;;;;;;5054962;28;20855;-72
2021/03/07 13:28:34;;;;;;;19.57;10.70;;;;;;;;;;5055086;28;20405;-73
2021/03/07 13:31:00;;;;;;;15.23;10.93;;;;;;;;;;5055522;28;20499;-72
2021/03/07 13:33:26;;;;;;;16.10;9.90;;;;;;;;;;5055915;28;20924;-73
2021/03/07 13:35:52;;;;;;;15.73;9.37;;;;;;;;;;5054550;28;20425;-72
2021/03/07 13:38:19;;;;;;;16.27;10.83;;;;;;;;;;5055751;28;20490;-72
2021/03/07 13:40:45;;;;;;;14.80;10.37;;;;;;;;;;5054709;28;20426;-72
2021/03/07 13:43:11;;;;;;;19.27;9.57;;;;;;;;;;5055009;28;20501;-72
2021/03/07 13:45:37;;;;;;;18.97;8.93;;;;;;;;;;5054495;28;20773;-72
2021/03/07 13:48:03;;;;;;;14.03;9.70;;;;;;;;;;5055813;28;20810;-72
2021/03/07 13:50:30;;;;;;;17.70;9.87;;;;;;;;;;5035216;28;20515;-72
2021/03/07 13:52:56;;;;;;;17.50;10.47;;;;;;;;;;5054031;28;20432;-72
2021/03/07 13:55:22;;;;;;;14.90;9.33;;;;;;;;;;5054468;28;20490;-72
2021/03/07 13:57:48;;;;;;;17.07;9.47;;;;;;;;;;5055353;28;20403;-72
2021/03/07 14:00:15;;;;;;;17.80;10.10;;;;;;;;;;5051933;28;20839;-72
2021/03/07 14:02:42;;;;;;;15.97;10.00;;;;;;;;;;5055015;28;20456;-72
2021/03/07 14:05:08;;;;;;;19.20;10.83;;;;;;;;;;5051850;28;20492;-72
2021/03/07 14:07:35;;;;;;;18.07;10.57;;;;;;;;;;5040947;28;20426;-73
2021/03/07 14:10:01;;;;;;;14.27;9.17;;;;;;;;;;5044590;28;20437;-72
2021/03/07 14:12:27;;;;;;;19.93;9.27;;;;;;;;;;5054983;28;20417;-72
2021/03/07 14:14:53;;;;;;;14.23;9.60;;;;;;;;;;5053938;28;20861;-72
2021/03/07 14:17:19;;;;;;;15.30;10.17;;;;;;;;;;5055640;28;20404;-72
2021/03/07 14:19:45;;;;;;;15.43;9.53;;;;;;;;;;5054479;28;20532;-72
2021/03/07 14:22:11;;;;;;;19.13;10.70;;;;;;;;;;5056096;28;20474;-72
2021/03/07 14:24:37;;;;;;;19.53;11.50;;;;;;;;;;5054818;28;20478;-72
2021/03/07 14:27:03;;;;;;;17.50;11.43;;;;;;;;;;5055871;28;20399;-72
2021/03/07 14:29:29;;;;;;;24.10;10.43;;;;;;;;;;5036530;28;20443;-72
2021/03/07 14:31:55;;;;;;;15.80;9.53;;;;;;;;;;5053996;28;20437;-72
2021/03/07 14:34:21;;;;;;;25.73;11.80;;;;;;;;;;5053175;28;20542;-72